createdAt,value
2023-01-11T00:00:43.855Z,9.38
2023-01-11T00:03:11.491Z,10.43
2023-01-11T00:05:43.198Z,7.20
2023-01-11T00:08:11.187Z,6.95
2023-01-11T00:10:38.632Z,6.47
2023-01-11T00:13:06.354Z,6.60
2023-01-11T00:15:36.148Z,7.97
2023-01-11T00:18:03.732Z,7.68
2023-01-11T00:20:31.131Z,7.65
2023-01-11T00:22:59.054Z,8.30
2023-01-11T00:25:26.589Z,7.05
2023-01-11T00:27:54.657Z,8.40
2023-01-11T00:30:22.414Z,7.80
2023-01-11T00:32:49.947Z,12.57
2023-01-11T00:35:17.400Z,6.68
2023-01-11T00:37:44.698Z,7.97
2023-01-11T00:40:12.301Z,6.47
2023-01-11T00:42:58.335Z,7.40
2023-01-11T00:45:44.159Z,7.95
2023-01-11T00:48:11.504Z,5.50
2023-01-11T00:50:40.169Z,7.55
2023-01-11T00:53:08.960Z,8.63
2023-01-11T00:55:36.699Z,6.00
2023-01-11T00:58:04.285Z,9.18
2023-01-11T01:00:31.847Z,6.05
2023-01-11T01:02:59.203Z,5.22
2023-01-11T01:05:26.596Z,7.50
2023-01-11T01:07:53.827Z,7.68
2023-01-11T01:10:21.408Z,8.45
2023-01-11T01:13:07.169Z,8.20
2023-01-11T01:15:34.607Z,6.70
2023-01-11T01:18:02.173Z,5.75
2023-01-11T01:20:29.562Z,4.80
2023-01-11T01:22:56.861Z,6.88
2023-01-11T01:25:24.293Z,4.88
2023-01-11T01:27:51.574Z,4.78
2023-01-11T01:30:18.925Z,7.60
2023-01-11T01:32:46.227Z,5.03
2023-01-11T01:35:13.749Z,4.78
2023-01-11T01:37:40.981Z,4.30
2023-01-11T01:40:09.020Z,5.85
2023-01-11T01:42:36.313Z,6.90
2023-01-11T01:45:06.927Z,6.22
2023-01-11T01:47:46.594Z,7.67
2023-01-11T01:50:22.972Z,6.10
2023-01-11T01:52:56.360Z,6.63
2023-01-11T01:55:30.048Z,5.32
2023-01-11T01:57:59.240Z,6.27
2023-01-11T02:00:26.632Z,7.10
2023-01-11T02:02:55.792Z,5.55
2023-01-11T02:05:23.219Z,6.25
2023-01-11T02:07:51.461Z,6.80
2023-01-11T02:10:23.091Z,5.97
2023-01-11T02:13:00.671Z,5.68
2023-01-11T02:15:29.133Z,5.07
2023-01-11T02:17:56.463Z,6.18
2023-01-11T02:20:38.800Z,7.65
2023-01-11T02:23:39.514Z,5.65
2023-01-11T02:26:25.209Z,6.97
2023-01-11T02:29:09.514Z,5.75
2023-01-11T02:32:04.760Z,5.90
2023-01-11T02:34:48.299Z,6.00
2023-01-11T02:37:57.253Z,14.05
2023-01-11T02:40:42.628Z,5.03
2023-01-11T02:43:41.009Z,5.60
2023-01-11T02:46:29.562Z,6.90
2023-01-11T02:49:04.691Z,5.85
2023-01-11T02:51:48.396Z,4.43
2023-01-11T02:54:19.641Z,6.05
2023-01-11T02:56:51.529Z,5.80
2023-01-11T02:59:22.663Z,5.72
2023-01-11T03:01:53.029Z,4.47
2023-01-11T03:04:33.667Z,6.35
2023-01-11T03:07:22.797Z,6.00
2023-01-11T03:09:53.000Z,7.47
2023-01-11T03:12:55.058Z,6.97
2023-01-11T03:15:22.379Z,6.95
2023-01-11T03:18:29.845Z,6.25
2023-01-11T03:21:15.193Z,5.28
2023-01-11T03:23:57.269Z,7.55
2023-01-11T03:26:39.489Z,5.97
2023-01-11T03:29:27.826Z,6.13
2023-01-11T03:32:07.745Z,4.47
2023-01-11T03:34:59.587Z,5.45
2023-01-11T03:37:31.340Z,10.45
2023-01-11T03:40:18.107Z,6.85
2023-01-11T03:43:08.442Z,10.80
2023-01-11T03:45:55.915Z,7.13
2023-01-11T03:48:38.141Z,8.20
2023-01-11T03:51:09.890Z,6.07
2023-01-11T03:53:39.798Z,6.38
2023-01-11T03:56:11.630Z,5.70
2023-01-11T03:58:39.582Z,7.18
2023-01-11T04:01:07.683Z,9.30
2023-01-11T04:03:34.903Z,5.35
2023-01-11T04:06:02.770Z,6.03
2023-01-11T04:08:31.161Z,5.45
2023-01-11T04:10:58.630Z,4.65
2023-01-11T04:13:25.903Z,7.72
2023-01-11T04:15:54.404Z,3.83
2023-01-11T04:18:21.957Z,4.13
2023-01-11T04:20:49.221Z,3.90
2023-01-11T04:23:16.535Z,5.03
2023-01-11T04:25:43.774Z,4.88
2023-01-11T04:28:10.983Z,6.18
2023-01-11T04:30:38.259Z,3.83
2023-01-11T04:33:05.572Z,5.03
2023-01-11T04:35:32.819Z,6.10
2023-01-11T04:38:00.117Z,6.57
2023-01-11T04:40:27.388Z,5.88
2023-01-11T04:42:54.703Z,4.18
2023-01-11T04:45:21.919Z,4.70
2023-01-11T04:47:55.714Z,4.65
2023-01-11T04:50:26.865Z,5.85
2023-01-11T04:52:54.231Z,4.07
2023-01-11T04:55:22.022Z,5.43
2023-01-11T04:57:49.241Z,4.87
2023-01-11T05:00:16.809Z,4.03
2023-01-11T05:02:44.126Z,4.45
2023-01-11T05:05:12.150Z,4.30
2023-01-11T05:07:39.663Z,5.43
2023-01-11T05:10:07.355Z,4.93
2023-01-11T05:12:34.673Z,5.07
2023-01-11T05:15:02.038Z,5.95
2023-01-11T05:17:29.285Z,4.93
2023-01-11T05:19:56.544Z,4.07
2023-01-11T05:22:23.920Z,4.30
2023-01-11T05:24:51.323Z,5.10
2023-01-11T05:27:18.644Z,3.40
2023-01-11T05:29:46.015Z,4.15
2023-01-11T05:32:13.514Z,3.58
2023-01-11T05:34:40.812Z,3.53
2023-01-11T05:37:08.079Z,3.60
2023-01-11T05:39:35.392Z,3.97
2023-01-11T05:42:02.759Z,3.10
2023-01-11T05:44:48.468Z,3.53
2023-01-11T05:47:15.769Z,3.22
2023-01-11T05:49:43.174Z,4.90
2023-01-11T05:52:10.533Z,6.85
2023-01-11T05:54:38.128Z,5.35
2023-01-11T05:57:10.508Z,6.38
2023-01-11T05:59:37.975Z,5.80
2023-01-11T06:02:05.277Z,3.35
2023-01-11T06:04:32.541Z,6.43
2023-01-11T06:06:59.935Z,8.87
2023-01-11T06:09:28.277Z,5.50
2023-01-11T06:11:55.601Z,9.65
2023-01-11T06:14:22.894Z,8.20
2023-01-11T06:16:50.295Z,6.43
2023-01-11T06:19:17.644Z,7.57
2023-01-11T06:21:44.959Z,10.27
2023-01-11T06:24:12.318Z,12.95
2023-01-11T06:26:39.609Z,30.10
2023-01-11T06:29:06.958Z,27.48
2023-01-11T06:31:34.378Z,14.80
2023-01-11T06:34:01.649Z,18.55
2023-01-11T06:36:29.844Z,17.23
2023-01-11T06:38:57.318Z,17.35
2023-01-11T06:41:24.663Z,17.55
2023-01-11T06:43:51.955Z,18.00
2023-01-11T06:46:19.653Z,14.13
2023-01-11T06:48:47.470Z,13.17
2023-01-11T06:51:15.835Z,12.05
2023-01-11T06:53:43.868Z,12.02
2023-01-11T06:56:13.776Z,9.60
2023-01-11T06:58:41.431Z,10.68
2023-01-11T07:01:09.188Z,10.57
2023-01-11T07:03:36.750Z,9.98
2023-01-11T07:06:04.743Z,9.88
2023-01-11T07:08:32.195Z,11.65
2023-01-11T07:10:59.612Z,12.60
2023-01-11T07:13:27.000Z,12.48
2023-01-11T07:15:57.514Z,9.43
2023-01-11T07:18:24.871Z,15.88
2023-01-11T07:20:52.261Z,12.57
2023-01-11T07:23:19.715Z,13.90
2023-01-11T07:25:48.560Z,15.20
2023-01-11T07:28:15.842Z,15.27
2023-01-11T07:30:56.690Z,14.73
2023-01-11T07:33:26.310Z,13.55
2023-01-11T07:35:54.034Z,10.88
2023-01-11T07:38:21.593Z,10.93
2023-01-11T07:40:48.921Z,12.73
2023-01-11T07:43:18.217Z,8.82
2023-01-11T07:45:50.558Z,8.57
2023-01-11T07:48:26.108Z,9.57
2023-01-11T07:50:53.865Z,11.95
2023-01-11T07:53:21.819Z,11.32
2023-01-11T07:55:49.187Z,9.32
2023-01-11T07:58:16.517Z,11.77
2023-01-11T08:00:45.974Z,15.13
2023-01-11T08:03:13.776Z,7.78
2023-01-11T08:05:41.252Z,9.13
2023-01-11T08:08:08.811Z,9.73
2023-01-11T08:10:36.210Z,8.45
2023-01-11T08:13:22.324Z,8.98
2023-01-11T08:15:49.747Z,9.38
2023-01-11T08:18:17.531Z,7.80
2023-01-11T08:20:45.756Z,12.02
2023-01-11T08:23:13.135Z,8.30
2023-01-11T08:25:40.643Z,7.47
2023-01-11T08:28:08.442Z,7.75
2023-01-11T08:30:36.918Z,8.55
2023-01-11T08:33:05.573Z,6.70
2023-01-11T08:35:38.201Z,7.35
2023-01-11T08:38:05.989Z,7.90
2023-01-11T08:40:33.435Z,8.57
2023-01-11T08:43:00.764Z,8.15
2023-01-11T08:45:28.148Z,10.55
2023-01-11T08:47:55.880Z,10.50
2023-01-11T08:50:23.398Z,8.18
2023-01-11T08:52:51.835Z,6.03
2023-01-11T08:55:19.852Z,6.10
2023-01-11T08:57:47.703Z,8.90
2023-01-11T09:00:15.939Z,4.55
2023-01-11T09:02:45.437Z,7.95
2023-01-11T09:05:13.002Z,7.13
2023-01-11T09:07:40.289Z,7.50
2023-01-11T09:10:10.001Z,7.05
2023-01-11T09:12:37.471Z,7.75
2023-01-11T09:15:06.078Z,9.10
2023-01-11T09:17:33.826Z,7.53
2023-01-11T09:20:01.417Z,10.73
2023-01-11T09:22:28.816Z,8.77
2023-01-11T09:24:59.013Z,6.53
2023-01-11T09:27:26.566Z,6.53
2023-01-11T09:29:53.890Z,9.77
2023-01-11T09:32:21.496Z,7.63
2023-01-11T09:34:49.670Z,9.45
2023-01-11T09:37:17.047Z,7.15
2023-01-11T09:39:44.788Z,7.30
2023-01-11T09:42:31.527Z,5.45
2023-01-11T09:45:03.145Z,6.35
2023-01-11T09:47:41.113Z,6.23
2023-01-11T09:50:28.301Z,5.60
2023-01-11T09:53:03.342Z,5.63
2023-01-11T09:55:38.083Z,5.68
2023-01-11T09:58:28.459Z,5.95
2023-01-11T10:01:15.126Z,6.80
2023-01-11T10:04:04.022Z,4.72
2023-01-11T10:07:02.608Z,5.72
2023-01-11T10:18:27.483Z,4.37
2023-01-11T10:19:37.430Z,7.45
2023-01-11T10:22:20.365Z,9.40
2023-01-11T10:24:55.335Z,5.63
2023-01-11T10:27:34.253Z,4.80
2023-01-11T10:30:06.328Z,6.07
2023-01-11T10:33:03.201Z,6.43
2023-01-11T10:35:55.022Z,5.43
2023-01-11T10:39:07.624Z,4.93
2023-01-11T10:41:52.473Z,6.03
2023-01-11T10:44:28.940Z,5.15
2023-01-11T10:46:59.669Z,4.35
2023-01-11T10:49:57.707Z,5.05
2023-01-11T10:52:35.362Z,6.20
2023-01-11T10:55:13.165Z,4.78
2023-01-11T10:58:11.065Z,5.20
2023-01-11T11:00:53.471Z,6.35
2023-01-11T11:03:56.989Z,5.50
2023-01-11T11:06:39.682Z,6.28
2023-01-11T11:09:24.288Z,6.00
2023-01-11T11:11:58.755Z,5.13
2023-01-11T11:14:52.991Z,6.30
2023-01-11T11:17:23.299Z,7.07
2023-01-11T11:19:52.398Z,5.28
2023-01-11T11:22:21.031Z,6.78
2023-01-11T11:24:53.569Z,4.33
2023-01-11T11:27:26.676Z,4.90
2023-01-11T11:29:56.971Z,4.97
2023-01-11T11:32:37.212Z,4.78
2023-01-11T11:35:07.748Z,4.68
2023-01-11T11:37:40.476Z,4.60
2023-01-11T11:40:36.805Z,4.63
2023-01-11T11:43:23.516Z,4.17
2023-01-11T11:45:59.158Z,4.60
2023-01-11T11:48:29.353Z,6.15
2023-01-11T11:50:59.469Z,4.90
2023-01-11T11:53:48.121Z,3.40
2023-01-11T11:56:37.750Z,5.40
2023-01-11T11:59:14.436Z,5.53
2023-01-11T12:01:47.019Z,3.00
2023-01-11T12:04:20.965Z,4.75
2023-01-11T12:07:09.220Z,5.15
2023-01-11T12:09:37.004Z,5.03
2023-01-11T12:12:04.868Z,5.68
2023-01-11T12:14:35.210Z,4.50
2023-01-11T12:17:23.931Z,3.90
2023-01-11T12:19:51.366Z,5.38
2023-01-11T12:22:21.419Z,3.72
2023-01-11T12:25:14.913Z,4.60
2023-01-11T12:28:05.136Z,4.13
2023-01-11T12:31:00.838Z,4.55
2023-01-11T12:33:48.659Z,3.57
2023-01-11T12:36:47.701Z,3.58
2023-01-11T12:39:32.679Z,4.95
2023-01-11T12:42:24.912Z,4.57
2023-01-11T12:45:22.985Z,4.63
2023-01-11T12:48:00.508Z,4.22
2023-01-11T12:53:30.843Z,4.68
2023-01-11T12:56:28.741Z,3.53
2023-01-11T12:59:23.826Z,3.58
2023-01-11T13:02:00.160Z,5.35
2023-01-11T13:05:01.819Z,4.65
2023-01-11T13:07:44.166Z,5.07
2023-01-11T13:10:35.048Z,4.43
2023-01-11T13:13:16.344Z,9.18
2023-01-11T13:15:56.296Z,11.50
2023-01-11T13:18:39.294Z,12.27
2023-01-11T13:21:34.230Z,14.80
2023-01-11T13:24:27.654Z,12.57
2023-01-11T13:27:03.325Z,9.70
2023-01-11T13:29:52.120Z,12.40
2023-01-11T13:32:32.767Z,9.20
2023-01-11T13:35:05.851Z,9.20
2023-01-11T13:37:49.144Z,14.68
2023-01-11T13:40:19.000Z,7.70
2023-01-11T13:43:07.146Z,12.50
2023-01-11T13:45:52.089Z,15.52
2023-01-11T13:48:28.535Z,16.77
2023-01-11T13:51:26.039Z,14.48
2023-01-11T13:54:00.187Z,14.40
2023-01-11T13:56:41.510Z,13.32
2023-01-11T13:59:15.391Z,11.07
2023-01-11T14:01:54.726Z,12.38
2023-01-11T14:04:46.901Z,8.32
2023-01-11T14:07:33.991Z,15.95
2023-01-11T14:10:25.878Z,10.13
2023-01-11T14:12:59.269Z,9.00
2023-01-11T14:15:53.380Z,7.97
2023-01-11T14:18:57.614Z,12.38
2023-01-11T14:21:42.057Z,8.88
2023-01-11T14:24:11.438Z,9.05
2023-01-11T14:27:11.849Z,9.05
2023-01-11T14:29:42.240Z,8.70
2023-01-11T14:32:16.813Z,6.90
2023-01-11T14:35:17.802Z,5.88
2023-01-11T14:38:21.592Z,9.00
2023-01-11T14:41:00.491Z,7.75
2023-01-11T14:43:53.589Z,10.20
2023-01-11T14:46:44.848Z,6.55
2023-01-11T14:49:42.751Z,5.93
2023-01-11T14:52:34.536Z,8.65
2023-01-11T14:55:29.270Z,6.93
2023-01-11T14:57:56.528Z,7.55
2023-01-11T15:00:23.794Z,6.00
2023-01-11T15:02:59.994Z,5.78
2023-01-11T15:05:31.051Z,8.07
2023-01-11T15:08:13.403Z,5.40
2023-01-11T15:11:01.393Z,6.03
2023-01-11T15:13:45.857Z,7.68
2023-01-11T15:16:39.375Z,7.10
2023-01-11T15:19:11.119Z,6.23
2023-01-11T15:21:47.921Z,7.15
2023-01-11T15:24:31.807Z,10.38
2023-01-11T15:27:01.414Z,7.50
2023-01-11T15:29:33.902Z,9.60
2023-01-11T15:32:27.564Z,8.37
2023-01-11T15:35:14.825Z,7.47
2023-01-11T15:37:49.090Z,12.55
2023-01-11T15:40:19.021Z,9.75
2023-01-11T15:43:07.363Z,7.90
2023-01-11T15:46:03.556Z,8.73
2023-01-11T15:48:55.595Z,16.45
2023-01-11T15:52:17.039Z,12.70
2023-01-11T15:54:44.373Z,10.82
2023-01-11T15:57:14.518Z,17.17
2023-01-11T16:00:15.539Z,13.10
2023-01-11T16:03:11.901Z,11.27
2023-01-11T16:05:44.093Z,17.80
2023-01-11T16:08:57.663Z,14.63
2023-01-11T16:12:05.441Z,15.50
2023-01-11T16:14:51.421Z,12.37
2023-01-11T16:17:22.308Z,16.55
2023-01-11T16:19:55.352Z,15.30
2023-01-11T16:22:27.926Z,15.65
2023-01-11T16:25:01.437Z,12.02
2023-01-11T16:27:32.731Z,12.50
2023-01-11T16:30:00.822Z,12.57
2023-01-11T16:32:32.852Z,14.35
2023-01-11T16:35:02.158Z,13.70
2023-01-11T16:37:39.929Z,9.82
2023-01-11T16:40:41.406Z,13.77
2023-01-11T16:43:17.130Z,13.50
2023-01-11T16:45:47.290Z,13.30
2023-01-11T16:48:23.004Z,15.57
2023-01-11T16:51:09.567Z,11.10
2023-01-11T16:53:42.355Z,10.23
2023-01-11T16:56:22.478Z,11.88
2023-01-11T16:59:30.934Z,13.15
2023-01-11T17:02:03.749Z,8.68
2023-01-11T17:04:35.013Z,8.50
2023-01-11T17:07:29.614Z,9.88
2023-01-11T17:10:20.659Z,9.10
2023-01-11T17:13:34.123Z,9.55
2023-01-11T17:16:10.244Z,6.97
2023-01-11T17:18:42.428Z,6.95
2023-01-11T17:21:27.283Z,8.43
2023-01-11T17:24:00.142Z,11.18
2023-01-11T17:26:48.849Z,8.73
2023-01-11T17:29:42.921Z,9.95
2023-01-11T17:32:18.037Z,8.52
2023-01-11T17:34:45.919Z,8.20
2023-01-11T17:37:15.857Z,11.30
2023-01-11T17:39:55.487Z,8.70
2023-01-11T17:42:42.039Z,12.63
2023-01-11T17:45:24.799Z,9.35
2023-01-11T17:47:54.396Z,8.80
2023-01-11T17:50:36.722Z,11.48
2023-01-11T17:53:13.007Z,7.97
2023-01-11T17:55:59.735Z,10.02
2023-01-11T17:58:31.856Z,8.63
2023-01-11T18:01:08.138Z,12.20
2023-01-11T18:03:51.442Z,9.50
2023-01-11T18:06:31.772Z,12.90
2023-01-11T18:09:00.973Z,10.50
2023-01-11T18:11:31.669Z,7.45
2023-01-11T18:14:02.816Z,10.23
2023-01-11T18:16:30.573Z,9.57
2023-01-11T18:18:58.106Z,9.90
2023-01-11T18:21:25.443Z,9.98
2023-01-11T18:24:11.021Z,10.13
2023-01-11T18:26:39.172Z,12.63
2023-01-11T18:29:17.780Z,11.85
2023-01-11T18:31:45.137Z,11.00
2023-01-11T18:34:12.426Z,12.23
2023-01-11T18:36:39.758Z,13.23
2023-01-11T18:39:13.359Z,11.68
2023-01-11T18:41:59.473Z,10.32
2023-01-11T18:44:28.546Z,12.60
2023-01-11T18:46:55.822Z,11.30
2023-01-11T18:49:23.229Z,10.13
2023-01-11T18:51:50.526Z,12.10
2023-01-11T18:54:18.426Z,12.43
2023-01-11T18:56:45.740Z,13.05
2023-01-11T18:59:13.636Z,15.43
2023-01-11T19:01:54.501Z,12.93
2023-01-11T19:04:26.112Z,14.48
2023-01-11T19:06:53.512Z,23.00
2023-01-11T19:09:20.805Z,23.43
2023-01-11T19:11:48.190Z,21.42
2023-01-11T19:14:15.615Z,24.55
2023-01-11T19:16:42.922Z,31.58
2023-01-11T19:19:10.224Z,32.83
2023-01-11T19:21:37.572Z,41.28
2023-01-11T19:24:05.317Z,46.80
2023-01-11T19:26:32.659Z,61.55
2023-01-11T19:28:59.913Z,47.33
2023-01-11T19:31:27.308Z,49.00
2023-01-11T19:33:54.640Z,46.13
2023-01-11T19:36:21.991Z,48.08
2023-01-11T19:38:49.478Z,48.65
2023-01-11T19:41:16.889Z,44.00
2023-01-11T19:43:47.449Z,44.65
2023-01-11T19:46:22.514Z,40.80
2023-01-11T19:48:57.856Z,37.08
2023-01-11T19:51:25.189Z,40.00
2023-01-11T19:53:52.457Z,39.85
2023-01-11T19:56:19.787Z,34.97
2023-01-11T19:58:47.085Z,39.55
2023-01-11T20:01:14.499Z,37.42
2023-01-11T20:03:42.693Z,37.10
2023-01-11T20:06:10.066Z,31.67
2023-01-11T20:08:40.138Z,34.97
2023-01-11T20:11:10.669Z,34.33
2023-01-11T20:13:38.955Z,32.17
2023-01-11T20:16:08.465Z,34.92
2023-01-11T20:18:36.174Z,40.67
2023-01-11T20:21:04.504Z,29.15
2023-01-11T20:23:32.944Z,27.80
2023-01-11T20:26:04.486Z,32.75
2023-01-11T20:28:33.055Z,52.38
2023-01-11T20:31:07.368Z,35.53
2023-01-11T20:33:34.823Z,30.98
2023-01-11T20:36:10.416Z,33.58
2023-01-11T20:38:37.719Z,35.05
2023-01-11T20:41:13.328Z,35.33
2023-01-11T20:43:40.683Z,37.65
2023-01-11T20:46:08.069Z,34.63
2023-01-11T20:48:36.172Z,36.75
2023-01-11T20:51:03.836Z,27.45
2023-01-11T20:53:31.120Z,28.08
2023-01-11T20:55:58.508Z,30.90
2023-01-11T20:58:25.858Z,28.52
2023-01-11T21:00:53.149Z,29.98
2023-01-11T21:03:23.717Z,29.70
2023-01-11T21:05:53.801Z,34.75
2023-01-11T21:08:21.180Z,37.22
2023-01-11T21:10:48.664Z,31.98
2023-01-11T21:13:15.992Z,28.15
2023-01-11T21:15:43.348Z,27.40
2023-01-11T21:18:10.771Z,31.60
2023-01-11T21:20:38.163Z,32.90
2023-01-11T21:23:05.605Z,27.25
2023-01-11T21:25:34.380Z,27.95
2023-01-11T21:28:01.702Z,29.45
2023-01-11T21:30:29.021Z,29.73
2023-01-11T21:32:57.292Z,28.30
2023-01-11T21:35:24.687Z,28.13
2023-01-11T21:37:51.915Z,41.83
2023-01-11T21:40:19.203Z,25.08
2023-01-11T21:42:46.854Z,22.02
2023-01-11T21:45:14.340Z,29.40
2023-01-11T21:47:44.617Z,38.85
2023-01-11T21:50:12.227Z,34.03
2023-01-11T21:52:39.583Z,27.73
2023-01-11T21:55:07.215Z,26.63
2023-01-11T21:57:34.493Z,28.15
2023-01-11T22:00:01.783Z,22.77
2023-01-11T22:02:39.472Z,34.67
2023-01-11T22:05:07.489Z,27.05
2023-01-11T22:07:36.691Z,26.75
2023-01-11T22:10:05.441Z,25.20
2023-01-11T22:12:33.868Z,18.77
2023-01-11T22:15:01.186Z,21.27
2023-01-11T22:17:28.652Z,23.83
2023-01-11T22:19:55.941Z,25.92
2023-01-11T22:22:23.221Z,23.80
2023-01-11T22:24:50.561Z,23.25
2023-01-11T22:27:17.939Z,23.95
2023-01-11T22:29:45.351Z,21.00
2023-01-11T22:32:12.641Z,22.52
2023-01-11T22:34:40.506Z,21.55
2023-01-11T22:37:07.866Z,20.83
2023-01-11T22:39:37.844Z,22.80
2023-01-11T22:42:05.382Z,23.58
2023-01-11T22:44:32.985Z,21.83
2023-01-11T22:47:00.632Z,22.55
2023-01-11T22:49:28.051Z,20.13
2023-01-11T22:51:55.437Z,22.45
2023-01-11T22:54:23.068Z,17.75
2023-01-11T22:56:50.439Z,17.25
2023-01-11T22:59:17.827Z,18.95
2023-01-11T23:01:45.121Z,15.60
2023-01-11T23:04:13.719Z,16.88
2023-01-11T23:06:42.718Z,18.98
2023-01-11T23:09:17.221Z,20.52
2023-01-11T23:12:04.099Z,17.50
2023-01-11T23:14:33.202Z,15.13
2023-01-11T23:17:07.210Z,17.92
2023-01-11T23:19:36.777Z,18.92
2023-01-11T23:22:04.981Z,20.38
2023-01-11T23:24:32.419Z,18.13
2023-01-11T23:26:59.831Z,14.93
2023-01-11T23:29:27.597Z,16.80
2023-01-11T23:31:54.871Z,16.73
2023-01-11T23:34:22.263Z,15.57
2023-01-11T23:36:49.593Z,14.38
2023-01-11T23:39:18.826Z,21.08
2023-01-11T23:42:04.628Z,13.82
2023-01-11T23:44:32.308Z,38.22
2023-01-11T23:47:18.285Z,20.70
2023-01-11T23:49:45.737Z,16.75
2023-01-11T23:52:13.019Z,14.10
2023-01-11T23:54:40.376Z,16.92
2023-01-11T23:57:07.811Z,14.55
2023-01-11T23:59:35.157Z,11.27
